Sky Manor (N40)
Pittstown, NJ
Field Elevation: 560
Lat: 40°33.95N  Long: 74°58.76W
CTAF/Unicom Freq: 122.9750
   
    
Weather Advisories
2017-04-25   20:09 Z
Altimeter 29.91" Hg
Wind 050° @ 12 KT
Gusts 17 KT
Visibility 1 3/4 SM
Ceiling OVC007
Temperature 13° C (55° F)
Dewpoint 9° C (48° F)
Relative Humidity 77%
Density Altitude --
Condensation Altitude 2,500 feet
Wind and Runways
Indicated Runway = 07
Headwind = 11 kt
Crosswind = 4 kt
History
 
 
 
More Info
All DigiWx sites map
NOAA Forecast
 
Airport IQ 5010
(4N1) Greenwood Lake, NJ
(PN44) Upper Gwynedd Heliport
 
about DigiWx
 
FAA Disclaimer: The data displayed is for advisory purposes only and is not to be used for flight planning or operations. For official data, please call (not available) to hear the current automated AWOS voice message.
  METAR N40 252009Z AUTO 05012G17KT 1 3/4 SM OVC007 13/09 A2991